Aviation Digital Data Service (ADDS)

Output produced by TAFs form (2154 UTC 30 September 2014)
found at http://www.aviationweather.gov/adds/tafs/
 
KAPA 302053Z 31008KT 10SM FEW150 SCT180 BKN220 18/00 A2984 RMK AO2 SLP069 T01780000 58011
KAPA 301958Z 3020/0118 32015KT P6SM SCT090 BKN200 
     FM010100 25008KT P6SM VCSH SCT060 BKN080 
     FM010400 19007KT P6SM SCT060 BKN100 
     FM010800 21008KT P6SM SCT100 BKN140 
     FM011500 08008KT P6SM SCT090 BKN140